Chance, Maryland
Current Conditions -  °F | °C
As of 5:54 AM on Wednesday 22 Oct 2014 (Local Time) from KSBY Reporting Station
Haze Haze  
Wind Chill: 57°   Ceiling: 500
Heat Index: 57°   Visibility: 4mi
Dew Point: 53°   Wind: 3mph
Humidity: 87%   Direction: 10°N
Pressure: 29.82"   Gusts: NA
Location:  38.17°N, 75.94°W
Report Text: KSBY 220954Z 01003KT 4SM BR OVC005 14/12 A2982 RMK AO2 SLP099 T01390117
Loading
Personal Weather Stations






























Interactive Weather Map
Tropical Storm Tracking
New forecast layout! Learn more

10-Day Weather Forecast

Advertisements
Track Severe Weather on mobile